Time;durP1;ratioP1;P1;durP2;ratioP2;P2;SDS_P1;SDS_P2;PMS_P1;PMS_P2;Temp;Humidity;BMP_temperature;BMP_pressure;BME280_temperature;BME280_humidity;BME280_pressure;Samples;Min_cycle;Max_cycle;Signal;HPM_P1;HPM_P2
2022/05/12 00:02:13;;;;;;;10.60;2.05;;;8.90;99.90;;;;;;5031998;28;20025;-76
2022/05/12 00:04:39;;;;;;;3.40;1.40;;;8.90;99.90;;;;;;5032502;28;20497;-76
2022/05/12 00:07:06;;;;;;;5.95;1.95;;;8.90;99.90;;;;;;5062684;22;20094;-78
2022/05/12 00:09:32;;;;;;;6.22;1.48;;;8.90;99.90;;;;;;5051502;28;20114;-80
2022/05/12 00:11:58;;;;;;;5.57;1.60;;;8.80;99.90;;;;;;5051589;28;20028;-79
2022/05/12 00:14:24;;;;;;;5.60;1.63;;;8.70;99.90;;;;;;5051818;28;20017;-79
2022/05/12 00:16:50;;;;;;;2.85;1.40;;;8.60;99.90;;;;;;5051795;28;20547;-79
2022/05/12 00:19:16;;;;;;;1.88;1.30;;;8.50;99.90;;;;;;5052328;28;20013;-79
2022/05/12 00:21:43;;;;;;;5.22;2.17;;;8.50;99.90;;;;;;5051899;28;20021;-79
2022/05/12 00:24:09;;;;;;;9.40;1.88;;;8.40;99.90;;;;;;5051007;28;20029;-80
2022/05/12 00:26:37;;;;;;;5.80;2.00;;;8.40;99.90;;;;;;5051955;28;20489;-80
2022/05/12 00:29:07;;;;;;;1.55;1.45;;;8.40;99.90;;;;;;5044896;28;20021;-79
2022/05/12 00:31:35;;;;;;;5.65;1.75;;;8.40;99.90;;;;;;5051614;28;20021;-79
2022/05/12 00:34:02;;;;;;;2.53;1.35;;;8.50;99.90;;;;;;5051358;28;20025;-79
2022/05/12 00:36:28;;;;;;;5.82;1.90;;;8.40;99.90;;;;;;5051879;28;20031;-79
2022/05/12 00:38:54;;;;;;;1.33;1.23;;;8.40;99.90;;;;;;5050664;28;20503;-80
2022/05/12 00:41:20;;;;;;;3.75;1.63;;;8.30;99.90;;;;;;5051298;28;20512;-79
2022/05/12 00:43:47;;;;;;;5.00;1.52;;;8.20;99.90;;;;;;5049985;28;20425;-79
2022/05/12 00:46:22;;;;;;;3.00;1.55;;;8.20;99.90;;;;;;5051323;28;20017;-79
2022/05/12 00:48:49;;;;;;;7.03;1.50;;;8.20;99.90;;;;;;5051291;28;20025;-79
2022/05/12 00:51:19;;;;;;;4.43;1.63;;;8.10;99.90;;;;;;5051324;28;20032;-79
2022/05/12 00:53:48;;;;;;;3.17;1.63;;;8.00;99.90;;;;;;5050773;28;20119;-79
2022/05/12 00:56:20;;;;;;;1.85;1.50;;;8.00;99.90;;;;;;5051035;28;20462;-79
2022/05/12 00:58:49;;;;;;;2.95;1.38;;;7.90;99.90;;;;;;5051101;28;20052;-79
2022/05/12 01:01:16;;;;;;;4.95;1.40;;;7.90;99.90;;;;;;5051255;28;20017;-79
2022/05/12 01:03:43;;;;;;;5.35;1.73;;;7.80;99.90;;;;;;5051234;28;20028;-80
2022/05/12 01:06:11;;;;;;;3.55;1.50;;;7.80;99.90;;;;;;5071231;22;20009;-77
2022/05/12 01:08:38;;;;;;;3.45;1.55;;;7.80;99.90;;;;;;5091891;28;20393;-76
2022/05/12 01:11:11;;;;;;;2.75;1.48;;;7.80;99.90;;;;;;5111782;28;20023;-76
2022/05/12 01:13:36;;;;;;;2.97;1.35;;;7.80;99.90;;;;;;5093415;28;20179;-76
2022/05/12 01:16:05;;;;;;;1.77;1.52;;;7.70;99.90;;;;;;5109375;28;20729;-76
2022/05/12 01:18:35;;;;;;;6.40;1.60;;;7.70;99.90;;;;;;5090687;28;20020;-76
2022/05/12 01:21:01;;;;;;;3.97;1.45;;;7.70;99.90;;;;;;5091436;28;20016;-76
2022/05/12 01:23:37;;;;;;;2.40;1.38;;;7.60;99.90;;;;;;5090676;28;20657;-76
2022/05/12 01:26:08;;;;;;;4.70;1.83;;;7.50;99.90;;;;;;5091007;28;20398;-76
2022/05/12 01:28:35;;;;;;;1.00;1.00;;;7.50;99.90;;;;;;5072851;28;20020;-76
2022/05/12 01:31:01;;;;;;;5.80;2.60;;;7.50;99.90;;;;;;5091218;28;20423;-76
2022/05/12 01:33:28;;;;;;;5.07;1.45;;;7.40;99.90;;;;;;5090970;28;20165;-77
2022/05/12 01:35:54;;;;;;;4.20;1.55;;;7.40;99.90;;;;;;5072675;28;20124;-76
2022/05/12 01:38:20;;;;;;;1.35;1.25;;;7.30;99.90;;;;;;5090977;28;20091;-76
2022/05/12 01:40:46;;;;;;;1.98;1.30;;;7.30;99.90;;;;;;5090956;28;20028;-76
2022/05/12 01:43:13;;;;;;;1.95;1.27;;;7.20;99.90;;;;;;5090809;28;20139;-76
2022/05/12 01:45:39;;;;;;;4.75;1.60;;;7.20;99.90;;;;;;5072784;28;20477;-76
2022/05/12 01:48:08;;;;;;;4.07;1.70;;;7.20;99.90;;;;;;5090531;28;20110;-76
2022/05/12 01:50:35;;;;;;;6.00;1.80;;;7.10;99.90;;;;;;5072191;28;20031;-77
2022/05/12 01:53:03;;;;;;;1.70;1.30;;;7.00;99.90;;;;;;5090279;28;20020;-76
2022/05/12 01:55:29;;;;;;;5.15;1.40;;;7.00;99.90;;;;;;5091094;28;20111;-76
2022/05/12 01:57:57;;;;;;;4.00;1.40;;;6.90;99.90;;;;;;5090610;28;20388;-77
2022/05/12 02:00:25;;;;;;;1.92;1.40;;;6.90;99.90;;;;;;5090192;28;20027;-76
2022/05/12 02:02:51;;;;;;;1.33;1.00;;;6.80;99.90;;;;;;5090828;28;20074;-76
2022/05/12 02:05:17;;;;;;;2.17;1.25;;;6.70;99.90;;;;;;5092764;28;20028;-76
2022/05/12 02:07:45;;;;;;;2.17;1.33;;;6.70;99.90;;;;;;5087409;22;20076;-79
2022/05/12 02:10:14;;;;;;;1.90;1.20;;;6.70;99.90;;;;;;5039203;28;20027;-81
2022/05/12 02:12:40;;;;;;;2.92;0.88;;;6.70;99.90;;;;;;5035972;28;20048;-83
2022/05/12 02:15:07;;;;;;;3.38;1.30;;;6.70;99.90;;;;;;5054192;28;20068;-84
2022/05/12 02:17:32;;;;;;;1.70;1.13;;;6.60;99.90;;;;;;5053936;28;20041;-84
2022/05/12 02:19:59;;;;;;;2.72;1.40;;;6.50;99.90;;;;;;5054225;28;20029;-85
2022/05/12 02:22:25;;;;;;;2.95;1.35;;;6.50;99.90;;;;;;5053753;28;20116;-84
2022/05/12 02:24:51;;;;;;;2.53;1.30;;;6.60;99.90;;;;;;5053791;28;20162;-85
2022/05/12 02:27:16;;;;;;;4.13;1.48;;;6.50;99.90;;;;;;5054162;28;20497;-84
2022/05/12 02:29:42;;;;;;;1.67;1.27;;;6.60;99.90;;;;;;5052583;28;20574;-84
2022/05/12 12:04:42;;;;;;;1.85;0.40;;;27.00;43.50;;;;;;5104832;27;20506;-83
2022/05/12 12:07:32;;;;;;;4.30;0.95;;;27.10;45.50;;;;;;5085357;28;20517;-82
2022/05/12 12:10:23;;;;;;;3.17;0.70;;;27.30;44.00;;;;;;5086850;28;20024;-80
2022/05/12 12:13:11;;;;;;;3.40;0.73;;;26.80;45.90;;;;;;5083080;28;20058;-81
2022/05/12 12:15:41;;;;;;;2.67;0.68;;;27.30;45.00;;;;;;5080819;28;20044;-82
2022/05/12 12:18:21;;;;;;;2.53;0.68;;;26.90;45.20;;;;;;5086712;28;20113;-80
2022/05/12 12:20:50;;;;;;;2.45;0.45;;;28.10;45.50;;;;;;5083514;28;20044;-82
2022/05/12 12:23:33;;;;;;;4.28;0.60;;;28.40;43.70;;;;;;5087791;28;20060;-81
2022/05/12 12:26:02;;;;;;;1.98;0.30;;;28.70;40.50;;;;;;5087732;28;20020;-82
2022/05/12 12:28:43;;;;;;;2.47;0.40;;;28.70;41.70;;;;;;5087623;28;20020;-82
2022/05/12 12:31:26;;;;;;;3.30;0.40;;;27.60;41.70;;;;;;5082881;28;20017;-82
2022/05/12 12:34:08;;;;;;;2.55;0.50;;;27.70;43.10;;;;;;5081900;28;20017;-82
2022/05/12 13:38:45;;;;;;;3.20;0.70;;;29.60;39.10;;;;;;5151803;22;20060;-82
2022/05/12 13:41:21;;;;;;;2.15;0.50;;;28.90;39.60;;;;;;5036011;28;20032;-81
2022/05/12 13:43:51;;;;;;;6.10;0.80;;;29.50;41.40;;;;;;5045905;28;20030;-83
2022/05/12 13:46:16;;;;;;;3.05;0.63;;;28.80;40.60;;;;;;5043438;28;20021;-80
2022/05/12 13:48:51;;;;;;;3.67;0.80;;;27.80;41.30;;;;;;5046498;28;20021;-82
2022/05/12 13:51:39;;;;;;;2.55;0.40;;;27.90;41.80;;;;;;5049606;28;20155;-83
2022/05/12 13:54:08;;;;;;;3.40;0.43;;;27.30;41.90;;;;;;5048547;28;20025;-82
2022/05/12 13:56:36;;;;;;;1.70;0.40;;;26.90;43.00;;;;;;5051334;28;20009;-83
2022/05/12 13:59:30;;;;;;;2.03;0.60;;;27.10;43.40;;;;;;5052079;28;20062;-82
2022/05/12 14:02:18;;;;;;;1.70;0.45;;;27.80;42.80;;;;;;5051381;28;20009;-83
2022/05/12 14:04:45;;;;;;;4.05;0.50;;;28.40;40.80;;;;;;5037443;28;20013;-83
2022/05/12 14:07:12;;;;;;;2.08;0.40;;;26.80;41.10;;;;;;5051368;28;20048;-82
2022/05/12 14:09:59;;;;;;;2.38;0.40;;;26.90;42.40;;;;;;5033063;28;20021;-82
2022/05/12 14:12:29;;;;;;;2.03;0.47;;;26.20;43.00;;;;;;5046629;28;20177;-82
2022/05/12 14:20:30;;;;;;;2.28;0.50;;;27.50;41.30;;;;;;5045721;28;20102;-83
2022/05/12 14:22:56;;;;;;;7.43;0.70;;;27.20;40.60;;;;;;5051678;28;20154;-81
2022/05/12 14:25:24;;;;;;;3.70;0.50;;;26.10;40.80;;;;;;5051139;28;20025;-82
2022/05/12 14:27:53;;;;;;;3.22;0.30;;;26.80;40.90;;;;;;5051748;28;20021;-82
2022/05/12 14:30:19;;;;;;;1.40;0.43;;;26.50;41.50;;;;;;5047685;28;20371;-82
2022/05/12 14:32:54;;;;;;;2.33;0.32;;;26.60;40.60;;;;;;5031212;28;20029;-82
2022/05/12 14:35:24;;;;;;;3.50;0.75;;;26.30;40.70;;;;;;5051522;28;20021;-81
2022/05/12 15:37:23;;;;;;;5.03;0.95;;;23.70;54.00;;;;;;5861840;22;20048;-77
2022/05/12 15:39:50;;;;;;;5.50;0.90;;;23.50;54.90;;;;;;5038285;28;20822;-76
2022/05/12 15:42:17;;;;;;;3.38;1.13;;;22.80;54.30;;;;;;5046006;28;20032;-77
2022/05/12 15:44:44;;;;;;;5.78;0.80;;;23.20;54.90;;;;;;5045092;28;20115;-77
2022/05/12 15:47:20;;;;;;;6.72;0.82;;;21.60;56.80;;;;;;5042036;28;20087;-77
2022/05/12 15:49:46;;;;;;;7.72;1.40;;;20.70;61.40;;;;;;5026427;28;20029;-78
2022/05/12 15:52:12;;;;;;;1.45;0.70;;;20.60;62.00;;;;;;5033988;28;20590;-78
2022/05/12 15:54:39;;;;;;;4.28;1.00;;;20.80;62.00;;;;;;5009985;28;20053;-79
2022/05/12 15:57:05;;;;;;;4.70;1.13;;;20.40;62.30;;;;;;5022209;28;20013;-79
2022/05/12 15:59:31;;;;;;;3.55;0.80;;;19.80;64.40;;;;;;5029388;28;20385;-79
2022/05/12 16:01:58;;;;;;;5.38;0.82;;;19.70;68.10;;;;;;5025326;28;20026;-79
2022/05/12 16:04:24;;;;;;;3.58;0.95;;;19.40;67.30;;;;;;5021653;28;20693;-80
2022/05/12 16:06:50;;;;;;;4.80;0.70;;;19.50;70.20;;;;;;5021729;28;20109;-79
2022/05/12 16:09:16;;;;;;;6.18;0.90;;;19.50;70.30;;;;;;5022882;28;20078;-81
2022/05/12 16:14:28;;;;;;;6.78;0.60;;;18.40;74.00;;;;;;5047785;28;20021;-77
2022/05/12 16:16:55;;;;;;;5.68;1.63;;;18.30;78.10;;;;;;5041400;28;20112;-77
2022/05/12 16:19:23;;;;;;;6.00;1.17;;;18.40;80.90;;;;;;5048934;28;20463;-79
2022/05/12 16:21:49;;;;;;;6.25;1.27;;;18.20;81.40;;;;;;5049114;28;20045;-77
2022/05/12 16:24:15;;;;;;;4.82;0.98;;;17.90;81.90;;;;;;5049670;28;20069;-77
2022/05/12 16:26:47;;;;;;;5.60;1.15;;;17.60;87.60;;;;;;5047378;28;20078;-77
2022/05/12 16:29:19;;;;;;;8.05;1.20;;;17.50;90.00;;;;;;5049308;28;20036;-77
2022/05/12 16:31:46;;;;;;;4.07;0.95;;;17.40;91.00;;;;;;5048008;28;20032;-77
2022/05/12 16:34:12;;;;;;;14.13;1.67;;;17.70;92.70;;;;;;5049295;28;20087;-78
2022/05/12 17:39:00;;;;;;;5.78;0.90;;;16.30;99.90;;;;;;5147236;22;20045;-76
2022/05/12 17:41:31;;;;;;;7.40;1.20;;;16.20;99.90;;;;;;5033249;28;20098;-77
2022/05/12 17:44:04;;;;;;;8.23;1.73;;;16.10;99.90;;;;;;5033731;28;20061;-78
2022/05/12 17:46:33;;;;;;;6.55;1.23;;;16.20;99.90;;;;;;5037594;28;20025;-78
2022/05/12 17:49:02;;;;;;;6.13;1.33;;;16.20;99.90;;;;;;5045816;28;20492;-76
2022/05/12 17:51:30;;;;;;;5.00;1.27;;;16.10;99.90;;;;;;5043055;28;20017;-81
2022/05/12 17:53:56;;;;;;;7.10;1.30;;;16.10;99.90;;;;;;5048089;28;20033;-80
2022/05/12 17:56:23;;;;;;;2.55;1.38;;;16.00;99.90;;;;;;5047385;28;20409;-81
2022/05/12 17:58:49;;;;;;;4.45;0.75;;;16.00;99.90;;;;;;5047611;28;20048;-82
2022/05/12 18:01:15;;;;;;;5.13;0.88;;;16.10;99.90;;;;;;5047653;28;20405;-80
2022/05/12 18:03:41;;;;;;;5.40;0.73;;;16.20;99.90;;;;;;5047592;28;20044;-87
2022/05/12 18:06:07;;;;;;;6.68;1.15;;;16.10;99.90;;;;;;5047314;28;20021;-81
2022/05/12 18:08:33;;;;;;;6.28;1.38;;;16.10;99.90;;;;;;5047669;28;20051;-82
2022/05/12 18:10:59;;;;;;;4.00;0.93;;;16.00;99.90;;;;;;5047442;28;20017;-87
2022/05/12 18:13:24;;;;;;;4.85;1.00;;;15.90;99.90;;;;;;5046088;28;20028;-84
2022/05/12 18:15:53;;;;;;;4.18;0.70;;;15.70;99.90;;;;;;5046602;28;20107;-78
2022/05/12 18:18:19;;;;;;;4.13;0.90;;;15.50;99.90;;;;;;5047251;28;20454;-80
2022/05/12 18:20:46;;;;;;;4.88;1.85;;;15.30;99.90;;;;;;5046765;28;20657;-86
2022/05/12 18:23:12;;;;;;;9.27;1.58;;;15.10;99.90;;;;;;5046901;28;20032;-83
2022/05/12 18:25:38;;;;;;;3.70;0.95;;;15.00;99.90;;;;;;5047807;28;20027;-83
2022/05/12 18:28:08;;;;;;;4.22;0.88;;;15.00;99.90;;;;;;5047146;28;20021;-83
2022/05/12 18:30:34;;;;;;;14.30;1.25;;;14.80;99.90;;;;;;5047941;28;20032;-82
2022/05/12 18:33:00;;;;;;;5.10;1.70;;;14.80;99.90;;;;;;5047118;28;20020;-83
2022/05/12 18:35:30;;;;;;;2.55;0.70;;;14.70;99.90;;;;;;5047843;28;20102;-83
2022/05/12 19:37:31;;;;;;;3.75;0.65;;;13.00;99.90;;;;;;5933273;22;20045;-77
2022/05/12 19:39:58;;;;;;;3.83;0.82;;;13.00;99.90;;;;;;5047746;28;20024;-77
2022/05/12 19:42:28;;;;;;;4.72;1.52;;;13.00;99.90;;;;;;5030292;28;20545;-78
2022/05/12 19:44:55;;;;;;;5.53;1.27;;;13.00;99.90;;;;;;5048200;28;20089;-76
2022/05/12 19:47:21;;;;;;;11.73;1.63;;;13.10;99.90;;;;;;5052517;28;20017;-77
2022/05/12 19:49:48;;;;;;;6.72;0.95;;;13.10;99.90;;;;;;5031856;28;20030;-78
2022/05/12 19:52:16;;;;;;;9.98;1.77;;;13.20;99.90;;;;;;5045215;28;20158;-77
2022/05/12 19:54:42;;;;;;;5.15;0.98;;;13.20;99.90;;;;;;5047986;28;20082;-77
2022/05/12 19:57:09;;;;;;;6.68;1.55;;;13.20;99.90;;;;;;5042523;28;20032;-77
2022/05/12 19:59:36;;;;;;;5.72;1.17;;;13.20;99.90;;;;;;5046211;28;20032;-78
2022/05/12 20:02:02;;;;;;;4.45;0.98;;;13.20;99.90;;;;;;5036017;28;20025;-77
2022/05/12 20:04:28;;;;;;;4.45;1.33;;;13.20;99.90;;;;;;5043874;28;20037;-77
2022/05/12 20:06:54;;;;;;;9.27;1.42;;;13.20;99.90;;;;;;5046913;28;20025;-77
2022/05/12 20:09:20;;;;;;;4.47;1.38;;;13.20;99.90;;;;;;5047306;28;20033;-76
2022/05/12 20:11:49;;;;;;;4.75;1.02;;;13.20;99.90;;;;;;5031360;28;20358;-77
2022/05/12 20:14:19;;;;;;;4.78;1.17;;;13.30;99.90;;;;;;5045290;28;20021;-76
2022/05/12 20:16:45;;;;;;;5.60;0.95;;;13.30;99.90;;;;;;5041458;28;20030;-76
2022/05/12 20:19:11;;;;;;;6.28;0.80;;;13.20;99.90;;;;;;5025513;28;20040;-81
2022/05/12 20:21:37;;;;;;;4.97;1.08;;;13.20;99.90;;;;;;5044899;28;20033;-83
2022/05/12 20:24:03;;;;;;;6.05;1.02;;;13.20;99.90;;;;;;5027266;28;20041;-82
2022/05/12 20:26:29;;;;;;;5.78;1.30;;;13.10;99.90;;;;;;5048169;28;20033;-83
2022/05/12 20:28:55;;;;;;;4.03;0.82;;;13.10;99.90;;;;;;5033923;28;20026;-82
2022/05/12 20:31:21;;;;;;;3.72;1.00;;;13.00;99.90;;;;;;5033366;28;20040;-81
2022/05/12 20:33:47;;;;;;;13.30;2.00;;;13.00;99.90;;;;;;5044455;28;20033;-82
2022/05/12 20:36:13;;;;;;;4.97;0.70;;;13.10;99.90;;;;;;5042128;28;20029;-82
2022/05/12 21:37:21;;;;;;;4.72;1.05;;;13.10;99.90;;;;;;5991500;22;20034;-80
2022/05/12 21:39:47;;;;;;;3.50;1.08;;;13.00;99.90;;;;;;4957800;28;20031;-81
2022/05/12 21:42:13;;;;;;;5.07;1.08;;;13.10;99.90;;;;;;4960100;28;20066;-81
2022/05/12 21:44:39;;;;;;;3.70;1.08;;;13.00;99.90;;;;;;4952414;28;20119;-83
2022/05/12 21:47:05;;;;;;;7.95;1.13;;;13.00;99.90;;;;;;4953502;28;20057;-83
2022/05/12 21:49:34;;;;;;;5.40;0.90;;;13.00;99.90;;;;;;4932086;28;20031;-82
2022/05/12 21:51:59;;;;;;;9.20;1.33;;;12.90;99.90;;;;;;4933740;28;20039;-82
2022/05/12 21:54:25;;;;;;;4.80;0.98;;;12.90;99.90;;;;;;4935171;28;20034;-83
2022/05/12 22:01:27;;;;;;;4.57;1.45;;;12.80;99.90;;;;;;4934639;28;20023;-82
2022/05/12 22:02:21;;;;;;;6.95;1.35;;;12.70;99.90;;;;;;4934031;28;20042;-77
2022/05/12 22:04:47;;;;;;;5.85;1.40;;;12.60;99.90;;;;;;4936875;28;20500;-77
2022/05/12 22:07:13;;;;;;;7.43;1.42;;;12.50;99.90;;;;;;4936229;28;20026;-77
2022/05/12 22:09:40;;;;;;;3.67;1.30;;;12.40;99.90;;;;;;4935714;28;20447;-76
2022/05/12 22:12:21;;;;;;;6.75;1.67;;;12.30;99.90;;;;;;4933364;28;20019;-78
2022/05/12 22:14:50;;;;;;;4.50;1.15;;;12.30;99.90;;;;;;4948028;28;20047;-81
2022/05/12 22:17:22;;;;;;;4.80;1.23;;;12.30;99.90;;;;;;4953278;28;20022;-81
2022/05/12 22:19:48;;;;;;;4.65;1.27;;;12.20;99.90;;;;;;4952925;28;20043;-81
2022/05/12 22:22:14;;;;;;;7.28;1.00;;;12.20;99.90;;;;;;4953484;28;20068;-80
2022/05/12 22:24:41;;;;;;;8.57;1.50;;;12.20;99.90;;;;;;4953277;28;20023;-81
2022/05/12 22:27:07;;;;;;;3.00;0.70;;;12.10;99.90;;;;;;4953802;28;20034;-81
2022/05/12 22:29:34;;;;;;;5.13;0.80;;;12.10;99.90;;;;;;4953038;28;20019;-81
2022/05/12 22:32:00;;;;;;;4.68;0.93;;;12.00;99.90;;;;;;4954241;28;20102;-82
2022/05/12 22:34:25;;;;;;;2.60;0.73;;;12.00;99.90;;;;;;4952778;28;20138;-82
2022/05/12 22:36:52;;;;;;;1.50;0.82;;;12.10;99.90;;;;;;4936893;28;20066;-82
2022/05/12 22:39:19;;;;;;;8.60;1.42;;;12.20;99.90;;;;;;4951309;28;20506;-81
2022/05/12 22:41:45;;;;;;;4.90;1.30;;;12.20;99.90;;;;;;4954260;28;20023;-82
2022/05/12 22:44:11;;;;;;;8.18;1.27;;;12.30;99.90;;;;;;4952684;28;20027;-81
2022/05/12 22:46:38;;;;;;;5.78;1.20;;;12.40;99.90;;;;;;4951368;28;20083;-82
2022/05/12 22:49:05;;;;;;;7.18;0.98;;;12.40;99.90;;;;;;4936285;28;20412;-80
2022/05/12 22:51:32;;;;;;;4.53;0.98;;;12.40;99.90;;;;;;4953169;28;20054;-81
2022/05/12 22:53:57;;;;;;;9.10;1.92;;;12.40;99.90;;;;;;4952848;28;20019;-81
2022/05/12 22:56:24;;;;;;;7.32;1.73;;;12.30;99.90;;;;;;4935563;28;20376;-81
2022/05/12 22:58:50;;;;;;;4.00;1.30;;;12.30;99.90;;;;;;4953556;28;20082;-81
2022/05/12 23:01:17;;;;;;;8.68;1.45;;;12.20;99.90;;;;;;4953145;28;20028;-80
2022/05/12 23:03:44;;;;;;;3.10;1.17;;;12.20;99.90;;;;;;4953081;28;20035;-81
2022/05/12 23:06:10;;;;;;;4.90;1.20;;;12.10;99.90;;;;;;4953165;28;20019;-81
